createdAt,value
2023-04-27T00:01:27.849Z,10.71
2023-04-27T00:03:55.009Z,10.66
2023-04-27T00:06:22.101Z,10.64
2023-04-27T00:08:49.048Z,10.68
2023-04-27T00:11:16.052Z,10.66
2023-04-27T00:13:42.947Z,10.64
2023-04-27T00:16:09.943Z,10.63
2023-04-27T00:18:38.246Z,10.60
2023-04-27T00:21:05.257Z,10.57
2023-04-27T00:23:32.222Z,10.55
2023-04-27T00:25:59.118Z,10.52
2023-04-27T00:28:26.187Z,10.51
2023-04-27T00:30:54.659Z,10.50
2023-04-27T00:33:21.701Z,10.49
2023-04-27T00:35:50.058Z,10.47
2023-04-27T00:38:17.008Z,10.44
2023-04-27T00:40:44.063Z,10.43
2023-04-27T00:43:11.141Z,10.40
2023-04-27T00:45:42.958Z,10.38
2023-04-27T00:48:11.077Z,10.39
2023-04-27T00:50:38.886Z,10.39
2023-04-27T00:53:07.975Z,10.45
2023-04-27T00:55:35.064Z,10.51
2023-04-27T00:58:02.747Z,10.58
2023-04-27T01:00:29.783Z,10.66
2023-04-27T01:02:57.142Z,10.72
2023-04-27T01:05:25.559Z,10.74
2023-04-27T01:07:52.596Z,10.76
2023-04-27T01:10:22.027Z,10.81
2023-04-27T01:12:49.040Z,10.82
2023-04-27T01:15:15.992Z,10.77
2023-04-27T01:17:43.746Z,10.77
2023-04-27T01:20:11.848Z,10.76
2023-04-27T01:22:39.720Z,10.77
2023-04-27T01:25:08.909Z,10.77
2023-04-27T01:27:35.837Z,10.78
2023-04-27T01:30:04.402Z,10.82
2023-04-27T01:32:31.341Z,10.86
2023-04-27T01:34:58.300Z,10.90
2023-04-27T01:37:27.228Z,10.92
2023-04-27T01:39:54.176Z,10.93
2023-04-27T01:42:22.546Z,10.88
2023-04-27T01:44:49.526Z,10.77
2023-04-27T01:47:19.464Z,10.80
2023-04-27T01:49:46.420Z,10.82
2023-04-27T01:52:13.327Z,10.82
2023-04-27T01:54:40.238Z,10.84
2023-04-27T01:57:07.132Z,10.87
2023-04-27T01:59:35.471Z,10.88
2023-04-27T02:02:02.445Z,10.89
2023-04-27T02:04:30.290Z,10.86
2023-04-27T02:06:58.192Z,10.86
2023-04-27T02:09:25.151Z,10.87
2023-04-27T02:11:52.124Z,10.89
2023-04-27T02:14:19.250Z,10.91
2023-04-27T02:16:48.650Z,10.93
2023-04-27T02:19:16.522Z,10.93
2023-04-27T02:21:44.133Z,10.90
2023-04-27T02:24:11.585Z,10.90
2023-04-27T02:26:38.544Z,10.84
2023-04-27T02:29:05.522Z,10.84
2023-04-27T02:31:33.089Z,10.84
2023-04-27T02:34:01.556Z,10.86
2023-04-27T02:36:28.452Z,10.86
2023-04-27T02:38:55.708Z,10.83
2023-04-27T02:41:22.693Z,10.84
2023-04-27T02:43:51.375Z,10.82
2023-04-27T02:46:18.382Z,10.81
2023-04-27T02:48:45.345Z,10.77
2023-04-27T02:51:13.752Z,10.70
2023-04-27T02:53:41.061Z,10.70
2023-04-27T02:56:08.056Z,10.68
2023-04-27T02:58:35.212Z,10.68
2023-04-27T03:01:02.662Z,10.70
2023-04-27T03:03:29.783Z,10.71
2023-04-27T03:05:56.781Z,10.73
2023-04-27T03:08:25.186Z,10.74
2023-04-27T03:10:52.085Z,10.75
2023-04-27T03:13:19.157Z,10.72
2023-04-27T03:15:46.356Z,10.72
2023-04-27T03:18:13.262Z,10.73
2023-04-27T03:20:41.437Z,10.73
2023-04-27T03:23:08.333Z,10.74
2023-04-27T03:25:36.923Z,10.74
2023-04-27T03:28:04.178Z,10.72
2023-04-27T03:30:31.170Z,10.71
2023-04-27T03:32:58.474Z,10.69
2023-04-27T03:35:25.610Z,10.69
2023-04-27T03:37:55.491Z,10.70
2023-04-27T03:40:22.692Z,10.72
2023-04-27T03:42:51.058Z,10.74
2023-04-27T03:45:19.268Z,10.76
2023-04-27T03:47:46.319Z,10.76
2023-04-27T03:50:15.101Z,10.79
2023-04-27T03:52:42.150Z,10.80
2023-04-27T03:55:09.640Z,10.81
2023-04-27T03:57:36.845Z,10.82
2023-04-27T04:00:12.170Z,10.82
2023-04-27T04:02:42.360Z,10.85
2023-04-27T04:05:09.580Z,10.85
2023-04-27T04:07:36.738Z,10.89
2023-04-27T04:10:04.336Z,10.91
2023-04-27T04:12:31.279Z,10.93
2023-04-27T04:14:58.188Z,10.98
2023-04-27T04:17:30.215Z,11.02
2023-04-27T04:19:57.128Z,11.04
2023-04-27T04:22:24.038Z,11.05
2023-04-27T04:24:51.510Z,11.06
2023-04-27T04:27:18.569Z,11.06
2023-04-27T04:29:45.799Z,11.08
2023-04-27T04:32:17.798Z,11.08
2023-04-27T04:34:51.182Z,11.09
2023-04-27T04:37:19.786Z,11.09
2023-04-27T04:39:47.067Z,11.11
2023-04-27T04:42:14.447Z,11.17
2023-04-27T04:44:42.172Z,11.18
2023-04-27T04:47:10.201Z,11.15
2023-04-27T04:49:37.248Z,11.12
2023-04-27T04:52:06.922Z,11.17
2023-04-27T04:54:33.873Z,11.22
2023-04-27T04:57:02.330Z,11.25
2023-04-27T04:59:33.346Z,11.31
2023-04-27T05:02:00.432Z,11.35
2023-04-27T05:04:27.613Z,11.39
2023-04-27T05:06:54.616Z,11.39
2023-04-27T05:09:22.942Z,11.42
2023-04-27T05:11:49.895Z,11.42
2023-04-27T05:14:16.879Z,11.45
2023-04-27T05:16:43.900Z,11.49
2023-04-27T05:19:10.991Z,11.49
2023-04-27T05:21:38.469Z,11.52
2023-04-27T05:24:06.416Z,11.56
2023-04-27T05:26:34.704Z,11.58
2023-04-27T05:29:01.802Z,11.59
2023-04-27T05:31:28.782Z,11.62
2023-04-27T05:33:56.036Z,11.67
2023-04-27T05:36:22.924Z,11.70
2023-04-27T05:38:50.266Z,11.71
2023-04-27T05:41:17.251Z,11.73
2023-04-27T05:43:46.122Z,11.76
2023-04-27T05:46:14.700Z,11.78
2023-04-27T05:48:41.965Z,11.79
2023-04-27T05:51:08.953Z,11.75
2023-04-27T05:53:36.054Z,11.77
2023-04-27T05:56:04.541Z,11.78
2023-04-27T05:58:31.801Z,11.77
2023-04-27T06:01:00.693Z,11.76
2023-04-27T06:03:27.742Z,11.77
2023-04-27T06:05:58.592Z,11.72
2023-04-27T06:08:26.261Z,11.67
2023-04-27T06:10:53.788Z,11.60
2023-04-27T06:13:21.107Z,11.61
2023-04-27T06:15:48.149Z,11.62
2023-04-27T06:18:16.778Z,11.62
2023-04-27T06:20:43.812Z,11.58
2023-04-27T06:23:11.150Z,11.53
2023-04-27T06:25:40.376Z,11.55
2023-04-27T06:28:07.464Z,11.56
2023-04-27T06:30:34.509Z,11.55
2023-04-27T06:33:01.693Z,11.58
2023-04-27T06:35:30.059Z,11.60
2023-04-27T06:37:58.879Z,11.67
2023-04-27T06:40:26.235Z,11.72
2023-04-27T06:42:53.230Z,11.73
2023-04-27T06:45:20.222Z,11.81
2023-04-27T06:47:47.164Z,11.89
2023-04-27T06:50:15.901Z,11.99
2023-04-27T06:52:44.243Z,12.06
2023-04-27T06:55:11.224Z,12.12
2023-04-27T06:57:38.207Z,12.18
2023-04-27T07:00:09.284Z,12.26
2023-04-27T07:02:36.828Z,12.37
2023-04-27T07:05:04.194Z,12.47
2023-04-27T07:07:31.121Z,12.60
2023-04-27T07:09:59.491Z,12.65
2023-04-27T07:12:27.013Z,12.67
2023-04-27T07:14:54.548Z,12.75
2023-04-27T07:17:21.666Z,12.84
2023-04-27T07:19:48.615Z,12.94
2023-04-27T07:22:18.233Z,13.00
2023-04-27T07:24:45.336Z,13.00
2023-04-27T07:27:15.069Z,12.99
2023-04-27T07:29:42.421Z,12.97
2023-04-27T07:32:09.616Z,12.95
2023-04-27T07:34:49.054Z,12.95
2023-04-27T07:37:20.534Z,13.05
2023-04-27T07:39:49.067Z,13.21
2023-04-27T07:42:17.477Z,13.36
2023-04-27T07:44:44.487Z,13.39
2023-04-27T07:47:11.420Z,13.43
2023-04-27T07:49:40.329Z,13.39
2023-04-27T07:52:07.395Z,13.37
2023-04-27T07:54:35.330Z,13.39
2023-04-27T07:57:02.542Z,13.44
2023-04-27T07:59:30.922Z,13.53
2023-04-27T08:02:15.036Z,13.50
2023-04-27T08:04:45.202Z,13.39
2023-04-27T08:07:12.904Z,13.35
2023-04-27T08:09:39.983Z,13.30
2023-04-27T08:12:07.176Z,13.29
2023-04-27T08:14:36.217Z,13.28
2023-04-27T08:17:03.322Z,13.38
2023-04-27T08:19:30.467Z,13.46
2023-04-27T08:21:57.389Z,13.45
2023-04-27T08:24:24.316Z,13.41
2023-04-27T08:26:51.404Z,13.39
2023-04-27T08:29:26.800Z,13.43
2023-04-27T08:31:59.594Z,13.41
2023-04-27T08:34:27.126Z,13.42
2023-04-27T08:36:54.488Z,13.52
2023-04-27T08:39:21.767Z,13.61
2023-04-27T08:41:48.699Z,13.71
2023-04-27T08:44:16.141Z,13.84
2023-04-27T08:46:43.131Z,13.96
2023-04-27T08:49:12.346Z,14.00
2023-04-27T08:51:41.891Z,14.02
2023-04-27T08:54:09.081Z,14.07
2023-04-27T08:56:36.614Z,14.05
2023-04-27T08:59:04.576Z,14.13
2023-04-27T09:01:34.104Z,14.29
2023-04-27T09:06:36.418Z,14.49
2023-04-27T09:09:04.218Z,14.58
2023-04-27T09:11:32.652Z,14.64
2023-04-27T09:14:03.868Z,14.67
2023-04-27T09:16:31.610Z,14.68
2023-04-27T09:18:59.357Z,14.71
2023-04-27T09:21:27.869Z,14.73
2023-04-27T09:23:57.063Z,14.74
2023-04-27T09:26:26.000Z,14.72
2023-04-27T09:28:54.749Z,14.70
2023-04-27T09:31:22.844Z,14.70
2023-04-27T09:33:55.962Z,14.69
2023-04-27T09:36:23.748Z,14.58
2023-04-27T09:38:52.334Z,14.58
2023-04-27T09:41:21.722Z,14.54
2023-04-27T09:43:49.659Z,14.53
2023-04-27T09:46:16.745Z,14.56
2023-04-27T09:48:43.670Z,14.60
2023-04-27T09:51:10.659Z,14.67
2023-04-27T09:53:41.101Z,14.72
2023-04-27T09:56:21.127Z,14.77
2023-04-27T09:59:26.960Z,14.81
2023-04-27T10:01:57.341Z,14.79
2023-04-27T10:04:45.923Z,14.77
2023-04-27T10:07:16.166Z,14.80
2023-04-27T10:09:48.744Z,14.83
2023-04-27T10:12:18.228Z,14.83
2023-04-27T10:14:53.923Z,14.84
2023-04-27T10:17:26.568Z,14.93
2023-04-27T10:19:58.243Z,15.01
2023-04-27T10:22:38.816Z,15.07
2023-04-27T10:25:14.237Z,15.13
2023-04-27T10:27:41.275Z,15.16
2023-04-27T10:30:12.170Z,15.22
2023-04-27T10:32:51.534Z,15.25
2023-04-27T10:35:20.979Z,15.28
2023-04-27T10:37:48.246Z,15.40
2023-04-27T10:40:17.696Z,15.50
2023-04-27T10:42:46.047Z,15.66
2023-04-27T10:45:14.325Z,15.52
2023-04-27T10:47:42.451Z,15.46
2023-04-27T10:50:19.335Z,15.54
2023-04-27T10:52:46.858Z,15.66
2023-04-27T10:55:15.900Z,15.78
2023-04-27T10:57:49.526Z,15.78
2023-04-27T11:00:23.981Z,16.06
2023-04-27T11:02:54.830Z,16.71
2023-04-27T11:05:24.928Z,17.20
2023-04-27T11:07:52.588Z,17.48
2023-04-27T11:10:20.517Z,17.58
2023-04-27T11:12:47.790Z,17.62
2023-04-27T11:15:14.823Z,17.64
2023-04-27T11:17:44.453Z,17.62
2023-04-27T11:20:11.513Z,17.83
2023-04-27T11:22:46.253Z,18.14
2023-04-27T11:25:13.693Z,18.34
2023-04-27T11:27:41.882Z,18.38
2023-04-27T11:30:21.441Z,18.42
2023-04-27T11:32:50.742Z,18.73
2023-04-27T11:35:18.496Z,19.02
2023-04-27T11:37:45.603Z,19.46
2023-04-27T11:40:14.262Z,19.76
2023-04-27T11:42:43.627Z,19.43
2023-04-27T11:45:12.262Z,19.10
2023-04-27T11:47:41.151Z,19.11
2023-04-27T11:50:10.614Z,18.98
2023-04-27T11:52:40.160Z,18.49
2023-04-27T11:55:10.806Z,17.91
2023-04-27T11:57:39.170Z,17.69
2023-04-27T12:00:11.130Z,17.69
2023-04-27T12:02:42.150Z,17.76
2023-04-27T12:05:13.538Z,17.78
2023-04-27T12:07:41.398Z,17.79
2023-04-27T12:10:09.281Z,17.82
2023-04-27T12:12:36.415Z,17.79
2023-04-27T12:15:03.738Z,17.64
2023-04-27T12:17:31.224Z,17.59
2023-04-27T12:19:58.253Z,17.63
2023-04-27T12:22:26.974Z,17.53
2023-04-27T12:24:53.915Z,17.50
2023-04-27T12:27:20.863Z,17.47
2023-04-27T12:29:47.841Z,17.52
2023-04-27T12:32:14.868Z,17.64
2023-04-27T12:34:42.937Z,17.54
2023-04-27T12:37:09.879Z,17.45
2023-04-27T12:39:38.671Z,17.58
2023-04-27T12:42:05.649Z,17.79
2023-04-27T12:44:32.719Z,18.29
2023-04-27T12:46:59.806Z,18.73
2023-04-27T12:49:26.860Z,18.65
2023-04-27T12:51:54.122Z,18.47
2023-04-27T12:54:21.250Z,18.27
2023-04-27T12:56:52.397Z,18.38
2023-04-27T12:59:19.424Z,18.23
2023-04-27T13:01:46.464Z,17.95
2023-04-27T13:04:19.697Z,17.90
2023-04-27T13:06:47.391Z,18.43
2023-04-27T13:09:14.411Z,18.85
2023-04-27T13:11:41.404Z,19.27
2023-04-27T13:14:12.753Z,19.33
2023-04-27T13:16:40.475Z,19.46
2023-04-27T13:19:07.523Z,19.69
2023-04-27T13:21:34.455Z,19.73
2023-04-27T13:24:01.430Z,19.73
2023-04-27T13:26:28.649Z,19.85
2023-04-27T13:28:55.696Z,19.92
2023-04-27T13:31:24.153Z,19.83
2023-04-27T13:33:51.087Z,19.97
2023-04-27T13:36:18.138Z,19.87
2023-04-27T13:38:45.782Z,19.78
2023-04-27T13:41:12.749Z,19.63
2023-04-27T13:43:39.946Z,19.57
2023-04-27T13:46:07.582Z,19.56
2023-04-27T13:48:36.186Z,19.62
2023-04-27T13:51:03.100Z,19.62
2023-04-27T13:53:30.073Z,19.81
2023-04-27T13:55:58.075Z,20.01
2023-04-27T13:58:27.213Z,20.15
2023-04-27T14:00:54.669Z,20.21
2023-04-27T14:03:22.781Z,20.21
2023-04-27T14:05:51.579Z,20.05
2023-04-27T14:08:19.219Z,19.83
2023-04-27T14:10:46.410Z,19.71
2023-04-27T14:13:13.574Z,19.71
2023-04-27T14:15:41.186Z,19.64
2023-04-27T14:18:09.249Z,19.60
2023-04-27T14:20:37.373Z,19.53
2023-04-27T14:23:09.187Z,19.66
2023-04-27T14:25:36.135Z,19.81
2023-04-27T14:28:07.079Z,19.88
2023-04-27T14:30:34.748Z,19.87
2023-04-27T14:33:01.975Z,19.87
2023-04-27T14:35:28.932Z,19.93
2023-04-27T14:38:01.763Z,20.00
2023-04-27T14:40:30.904Z,19.91
2023-04-27T14:42:58.616Z,19.86
2023-04-27T14:45:29.217Z,19.86
2023-04-27T14:47:58.172Z,19.77
2023-04-27T14:50:25.350Z,19.62
2023-04-27T14:52:52.518Z,19.54
2023-04-27T14:55:19.463Z,19.49
2023-04-27T14:57:48.500Z,19.50
2023-04-27T15:00:16.415Z,19.51
2023-04-27T15:02:43.443Z,19.43
2023-04-27T15:05:10.465Z,19.34
2023-04-27T15:07:37.703Z,19.09
2023-04-27T15:10:05.810Z,18.79
2023-04-27T15:12:32.952Z,18.60
2023-04-27T15:15:01.333Z,18.42
2023-04-27T15:17:28.349Z,18.21
2023-04-27T15:19:55.332Z,18.04
2023-04-27T15:22:23.626Z,17.86
2023-04-27T15:24:50.937Z,17.68
2023-04-27T15:27:18.036Z,17.61
2023-04-27T15:29:45.019Z,17.57
2023-04-27T15:32:15.118Z,17.49
2023-04-27T15:34:44.531Z,17.53
2023-04-27T15:37:12.134Z,17.64
2023-04-27T15:39:39.192Z,17.71
2023-04-27T15:42:06.399Z,17.74
2023-04-27T15:44:33.332Z,17.74
2023-04-27T15:47:00.415Z,17.75
2023-04-27T15:49:30.147Z,17.70
2023-04-27T15:51:57.215Z,17.63
2023-04-27T15:54:24.298Z,17.57
2023-04-27T15:56:51.786Z,17.49
2023-04-27T15:59:18.709Z,17.43
2023-04-27T16:01:45.844Z,17.35
2023-04-27T16:04:12.956Z,17.31
2023-04-27T16:06:41.629Z,17.26
2023-04-27T16:09:10.588Z,17.15
2023-04-27T16:11:38.072Z,17.03
2023-04-27T16:14:05.029Z,16.96
2023-04-27T16:16:32.330Z,16.90
2023-04-27T16:18:59.454Z,16.82
2023-04-27T16:21:28.013Z,16.75
2023-04-27T16:23:56.855Z,16.68
2023-04-27T16:26:24.862Z,16.60
2023-04-27T16:28:54.432Z,16.50
2023-04-27T16:31:21.562Z,16.39
2023-04-27T16:33:49.031Z,16.27
2023-04-27T16:36:16.306Z,16.14
2023-04-27T16:38:43.287Z,16.03
2023-04-27T16:41:11.642Z,15.93
2023-04-27T16:43:38.734Z,15.81
2023-04-27T16:46:08.247Z,15.70
2023-04-27T16:48:35.338Z,15.57
2023-04-27T16:51:02.499Z,15.45
2023-04-27T16:53:29.495Z,15.33
2023-04-27T16:56:00.183Z,15.22
2023-04-27T16:58:28.921Z,15.12
2023-04-27T17:00:56.477Z,15.05
2023-04-27T17:03:23.521Z,14.95
2023-04-27T17:05:51.291Z,14.83
2023-04-27T17:08:18.312Z,14.73
2023-04-27T17:10:45.517Z,14.63
2023-04-27T17:13:17.628Z,14.56
2023-04-27T17:15:46.181Z,14.48
2023-04-27T17:18:13.243Z,14.40
2023-04-27T17:20:41.687Z,14.30
2023-04-27T17:23:09.402Z,14.19
2023-04-27T17:25:36.494Z,14.10
2023-04-27T17:28:03.828Z,13.99
2023-04-27T17:30:31.072Z,13.94
2023-04-27T17:32:59.791Z,13.84
2023-04-27T17:35:26.949Z,13.77
2023-04-27T17:37:53.967Z,13.69
2023-04-27T17:40:22.749Z,13.61
2023-04-27T17:42:49.786Z,13.51
2023-04-27T17:45:17.124Z,13.45
2023-04-27T17:47:44.033Z,13.36
2023-04-27T17:50:14.687Z,13.31
2023-04-27T17:52:41.827Z,13.25
2023-04-27T17:55:08.818Z,13.18
2023-04-27T17:57:35.930Z,13.14
2023-04-27T18:00:03.382Z,13.08
2023-04-27T18:02:36.694Z,13.01
2023-04-27T18:05:07.090Z,12.93
2023-04-27T18:07:38.985Z,12.87
2023-04-27T18:10:07.602Z,12.84
2023-04-27T18:12:35.198Z,12.79
2023-04-27T18:15:04.997Z,12.79
2023-04-27T18:17:33.309Z,12.80
2023-04-27T18:20:08.895Z,12.80
2023-04-27T18:22:39.878Z,12.75
2023-04-27T18:25:08.641Z,12.75
2023-04-27T18:27:37.523Z,12.70
2023-04-27T18:30:05.285Z,12.58
2023-04-27T18:32:34.116Z,12.62
2023-04-27T18:35:02.338Z,12.64
2023-04-27T18:37:29.305Z,12.69
2023-04-27T18:39:57.623Z,12.70
2023-04-27T18:42:24.658Z,12.75
2023-04-27T18:44:54.789Z,12.79
2023-04-27T18:47:21.940Z,12.83
2023-04-27T18:49:49.075Z,12.91
2023-04-27T18:52:16.147Z,12.91
2023-04-27T18:54:43.327Z,12.94
2023-04-27T18:57:11.693Z,12.95
2023-04-27T18:59:41.649Z,13.01
2023-04-27T19:02:08.833Z,13.02
2023-04-27T19:04:35.946Z,13.00
2023-04-27T19:07:03.069Z,13.01
2023-04-27T19:09:30.082Z,12.98
2023-04-27T19:12:02.872Z,12.91
2023-04-27T19:14:32.645Z,12.87
2023-04-27T19:16:59.698Z,12.77
2023-04-27T19:19:27.791Z,12.76
2023-04-27T19:21:54.966Z,12.80
2023-04-27T19:24:21.894Z,12.72
2023-04-27T19:26:48.980Z,12.62
2023-04-27T19:29:16.583Z,12.60
2023-04-27T19:31:45.457Z,12.56
2023-04-27T19:34:12.469Z,12.44
2023-04-27T19:36:39.352Z,12.34
2023-04-27T19:39:06.918Z,12.24
2023-04-27T19:41:33.850Z,12.19
2023-04-27T19:44:00.869Z,12.14
2023-04-27T19:46:27.805Z,12.03
2023-04-27T19:48:56.114Z,11.97
2023-04-27T19:51:23.532Z,11.97
2023-04-27T19:53:50.738Z,11.97
2023-04-27T19:56:17.788Z,12.00
2023-04-27T19:58:44.724Z,11.99
2023-04-27T20:01:13.025Z,11.88
2023-04-27T20:03:40.704Z,11.76
2023-04-27T20:06:10.411Z,11.64
2023-04-27T20:08:37.455Z,11.51
2023-04-27T20:11:04.361Z,11.42
2023-04-27T20:13:31.591Z,11.42
2023-04-27T20:15:59.196Z,11.48
2023-04-27T20:18:28.458Z,11.52
2023-04-27T20:20:55.391Z,11.53
2023-04-27T20:23:23.880Z,11.53
2023-04-27T20:25:51.524Z,11.56
2023-04-27T20:28:18.598Z,11.57
2023-04-27T20:30:45.786Z,11.55
2023-04-27T20:33:13.911Z,11.55
2023-04-27T20:35:41.181Z,11.61
2023-04-27T20:38:08.655Z,11.64
2023-04-27T20:40:37.809Z,11.66
2023-04-27T20:43:05.041Z,11.66
2023-04-27T20:45:32.053Z,11.66
2023-04-27T20:47:59.156Z,11.63
2023-04-27T20:50:26.559Z,11.54
2023-04-27T20:52:54.716Z,11.50
2023-04-27T20:55:22.221Z,11.48
2023-04-27T20:57:50.544Z,11.51
2023-04-27T21:00:18.825Z,11.54
2023-04-27T21:02:45.939Z,11.54
2023-04-27T21:05:12.976Z,11.54
2023-04-27T21:07:39.874Z,11.53
2023-04-27T21:10:08.064Z,11.54
2023-04-27T21:12:35.041Z,11.56
2023-04-27T21:15:03.677Z,11.57
2023-04-27T21:17:30.777Z,11.42
2023-04-27T21:19:58.302Z,11.37
2023-04-27T21:22:25.275Z,11.36
2023-04-27T21:24:52.708Z,11.40
2023-04-27T21:27:19.635Z,11.36
2023-04-27T21:29:46.532Z,11.31
2023-04-27T21:32:14.803Z,11.30
2023-04-27T21:34:41.726Z,11.27
2023-04-27T21:37:08.641Z,11.31
2023-04-27T21:39:35.868Z,11.33
2023-04-27T21:42:02.785Z,11.32
2023-04-27T21:44:29.848Z,11.35
2023-04-27T21:46:57.188Z,11.36
2023-04-27T21:49:26.298Z,11.40
2023-04-27T21:51:53.236Z,11.41
2023-04-27T21:54:20.171Z,11.42
2023-04-27T21:56:47.187Z,11.41
2023-04-27T21:59:14.173Z,11.37
2023-04-27T22:01:41.189Z,11.34
2023-04-27T22:04:08.533Z,11.36
2023-04-27T22:06:38.047Z,11.36
2023-04-27T22:09:07.803Z,11.35
2023-04-27T22:11:35.122Z,11.36
2023-04-27T22:14:02.076Z,11.37
2023-04-27T22:16:30.238Z,11.37
2023-04-27T22:18:58.105Z,11.37
2023-04-27T22:21:25.583Z,11.39
2023-04-27T22:23:53.905Z,11.33
2023-04-27T22:26:20.851Z,11.21
2023-04-27T22:28:47.735Z,11.13
2023-04-27T22:31:14.736Z,11.13
2023-04-27T22:33:41.729Z,11.19
2023-04-27T22:36:09.366Z,11.25
2023-04-27T22:38:36.630Z,11.28
2023-04-27T22:41:05.259Z,11.31
2023-04-27T22:43:32.290Z,11.30
2023-04-27T22:45:59.212Z,11.23
2023-04-27T22:48:26.132Z,11.21
2023-04-27T22:50:53.145Z,11.19
2023-04-27T22:53:20.105Z,11.14
2023-04-27T22:55:47.299Z,11.07
2023-04-27T22:58:15.804Z,11.04
2023-04-27T23:00:42.815Z,11.05
2023-04-27T23:03:11.819Z,11.11
2023-04-27T23:05:39.055Z,11.12
2023-04-27T23:08:06.780Z,11.07
2023-04-27T23:10:34.842Z,11.03
2023-04-27T23:13:04.231Z,10.99
2023-04-27T23:15:32.667Z,11.01
2023-04-27T23:17:59.727Z,11.05
2023-04-27T23:20:28.868Z,11.10
2023-04-27T23:22:56.230Z,11.14
2023-04-27T23:25:23.706Z,11.12
2023-04-27T23:27:52.164Z,11.09
2023-04-27T23:30:19.976Z,11.09
2023-04-27T23:32:48.466Z,11.09
2023-04-27T23:35:15.471Z,11.12
2023-04-27T23:37:42.642Z,11.17
2023-04-27T23:40:10.173Z,11.20
2023-04-27T23:42:37.081Z,11.19
2023-04-27T23:45:05.047Z,11.19
2023-04-27T23:47:34.316Z,11.14
2023-04-27T23:50:02.958Z,11.12
2023-04-27T23:52:29.921Z,11.10
2023-04-27T23:54:57.567Z,11.11
2023-04-27T23:57:24.540Z,11.10
2023-04-27T23:59:51.615Z,11.05
